Time;durP1;ratioP1;P1;durP2;ratioP2;P2;SDS_P1;SDS_P2;PMS_P1;PMS_P2;Temp;Humidity;BMP_temperature;BMP_pressure;BME280_temperature;BME280_humidity;BME280_pressure;Samples;Min_cycle;Max_cycle;Signal;HPM_P1;HPM_P2
2023/03/20 00:02:02;;;;;;;21.75;14.18;;;11.10;99.90;;;;;;5047439;28;20032;-44
2023/03/20 00:04:28;;;;;;;19.95;13.85;;;11.10;99.90;;;;;;5044937;28;20095;-45
2023/03/20 00:06:54;;;;;;;21.67;13.25;;;11.10;99.90;;;;;;5042525;28;20108;-45
2023/03/20 00:09:19;;;;;;;15.52;12.40;;;11.10;99.90;;;;;;5045090;28;20024;-46
2023/03/20 00:11:50;;;;;;;17.08;12.55;;;11.10;99.90;;;;;;5042933;28;20025;-47
2023/03/20 00:14:18;;;;;;;18.73;13.07;;;11.10;99.90;;;;;;5043614;28;20029;-45
2023/03/20 00:16:45;;;;;;;19.27;12.90;;;11.10;99.90;;;;;;5042922;28;20435;-48
2023/03/20 00:19:13;;;;;;;22.60;14.90;;;11.10;99.90;;;;;;5044053;28;20108;-45
2023/03/20 00:21:39;;;;;;;21.95;15.40;;;11.10;99.90;;;;;;5043757;28;20028;-47
2023/03/20 00:24:05;;;;;;;22.08;14.23;;;11.00;99.90;;;;;;5043254;28;20025;-46
2023/03/20 00:26:34;;;;;;;25.60;16.08;;;11.10;99.90;;;;;;5042685;28;20033;-48
2023/03/20 00:29:02;;;;;;;26.42;16.92;;;11.00;99.90;;;;;;5055316;28;20033;-46
2023/03/20 00:31:36;;;;;;;22.33;15.93;;;11.00;99.90;;;;;;5044782;28;20025;-45
2023/03/20 00:34:05;;;;;;;21.67;15.55;;;11.00;99.90;;;;;;5043057;28;20498;-48
2023/03/20 00:36:31;;;;;;;27.77;15.95;;;11.00;99.90;;;;;;5044218;28;20017;-47
2023/03/20 00:38:57;;;;;;;26.27;16.08;;;11.00;99.90;;;;;;5042068;28;20029;-47
2023/03/20 00:41:31;;;;;;;23.02;15.85;;;11.00;99.90;;;;;;5044242;28;20430;-49
2023/03/20 00:44:01;;;;;;;26.65;16.45;;;11.00;99.90;;;;;;5041991;28;20024;-48
2023/03/20 00:46:28;;;;;;;27.33;17.00;;;11.00;99.90;;;;;;5043839;28;20639;-48
2023/03/20 00:48:54;;;;;;;29.65;17.13;;;11.00;99.90;;;;;;5041442;28;20036;-46
2023/03/20 00:51:20;;;;;;;24.67;16.52;;;11.00;99.90;;;;;;5044160;28;20417;-45
2023/03/20 00:53:45;;;;;;;25.45;16.30;;;10.90;99.90;;;;;;5041924;28;20024;-47
2023/03/20 00:56:30;;;;;;;24.95;16.30;;;10.90;99.90;;;;;;5042928;28;20029;-48
2023/03/20 00:58:56;;;;;;;29.25;16.80;;;10.90;99.90;;;;;;5044347;28;20434;-46
2023/03/20 01:01:22;;;;;;;24.67;17.02;;;10.90;99.90;;;;;;5043949;28;20051;-45
2023/03/20 01:03:48;;;;;;;22.58;15.32;;;10.90;99.90;;;;;;5041746;28;20411;-47
2023/03/20 01:06:13;;;;;;;25.45;16.73;;;10.90;99.90;;;;;;5043177;28;20083;-45
2023/03/20 01:08:40;;;;;;;23.85;16.50;;;10.90;99.90;;;;;;5042779;28;20029;-45
2023/03/20 01:11:05;;;;;;;24.35;16.88;;;10.80;99.90;;;;;;5042240;28;20032;-45
2023/03/20 01:13:32;;;;;;;23.38;16.38;;;10.80;99.90;;;;;;5043623;28;20021;-46
2023/03/20 01:15:58;;;;;;;24.17;15.38;;;10.80;99.90;;;;;;5040883;28;20475;-46
2023/03/20 01:18:25;;;;;;;24.75;16.45;;;10.80;99.90;;;;;;5043601;28;20112;-45
2023/03/20 01:20:52;;;;;;;30.00;17.23;;;10.80;99.90;;;;;;5040779;28;20368;-46
2023/03/20 01:23:19;;;;;;;27.00;16.73;;;10.70;99.90;;;;;;5043481;28;20166;-45
2023/03/20 01:25:45;;;;;;;28.42;18.55;;;10.70;99.90;;;;;;5041352;28;20021;-45
2023/03/20 01:28:22;;;;;;;27.15;18.17;;;10.70;99.90;;;;;;5042984;28;20098;-44
2023/03/20 01:30:48;;;;;;;28.60;17.98;;;10.60;99.90;;;;;;5043358;28;20017;-46
2023/03/20 01:33:22;;;;;;;28.23;18.52;;;10.70;99.90;;;;;;5043145;28;20017;-45
2023/03/20 01:35:48;;;;;;;28.50;17.38;;;10.60;99.90;;;;;;5042521;28;20036;-45
2023/03/20 01:38:19;;;;;;;25.08;17.15;;;10.60;99.90;;;;;;5035946;28;20054;-45
2023/03/20 01:40:53;;;;;;;25.55;16.15;;;10.60;99.90;;;;;;5033869;28;20017;-44
2023/03/20 01:43:20;;;;;;;24.95;16.80;;;10.50;99.90;;;;;;5038500;28;20025;-45
2023/03/20 01:46:01;;;;;;;28.50;17.50;;;10.50;99.90;;;;;;5040271;28;20074;-48
2023/03/20 01:48:54;;;;;;;29.15;18.45;;;10.40;99.90;;;;;;5042810;28;20036;-45
2023/03/20 01:51:21;;;;;;;36.65;21.15;;;10.40;99.90;;;;;;5042110;28;20063;-44
2023/03/20 01:53:51;;;;;;;30.77;20.13;;;10.30;99.90;;;;;;5041033;28;20017;-45
2023/03/20 01:56:19;;;;;;;28.60;18.55;;;10.30;99.90;;;;;;5040775;28;20497;-46
2023/03/20 01:58:55;;;;;;;33.50;20.20;;;10.30;99.90;;;;;;5044032;28;20102;-45
2023/03/20 02:01:23;;;;;;;42.15;23.15;;;10.20;99.90;;;;;;5041848;28;20025;-46
2023/03/20 02:03:49;;;;;;;35.50;23.25;;;10.20;99.90;;;;;;5040587;28;20020;-45
2023/03/20 02:06:15;;;;;;;39.88;22.88;;;10.10;99.90;;;;;;5042109;28;20032;-45
2023/03/20 02:08:47;;;;;;;43.45;25.55;;;10.00;99.90;;;;;;5071542;28;20158;-44
2023/03/20 02:11:15;;;;;;;44.05;25.02;;;10.00;99.90;;;;;;5042038;28;20019;-44
2023/03/20 02:13:42;;;;;;;45.67;27.08;;;10.00;99.90;;;;;;5041280;28;20036;-46
2023/03/20 02:16:13;;;;;;;51.80;31.40;;;9.90;99.90;;;;;;5040854;28;20026;-44
2023/03/20 02:18:41;;;;;;;48.58;28.95;;;9.90;99.90;;;;;;5042404;28;20021;-46
2023/03/20 02:21:30;;;;;;;48.08;29.88;;;9.80;99.90;;;;;;5052146;28;20029;-45
2023/03/20 02:24:17;;;;;;;48.60;30.52;;;9.70;99.90;;;;;;5042784;28;20025;-44
2023/03/20 02:27:00;;;;;;;49.63;29.02;;;9.70;99.90;;;;;;5041050;28;20013;-44
2023/03/20 02:29:45;;;;;;;50.42;28.35;;;9.50;99.90;;;;;;5042100;28;20021;-46
2023/03/20 02:32:25;;;;;;;49.05;29.02;;;9.40;99.90;;;;;;5040259;28;20633;-45
2023/03/20 02:35:14;;;;;;;45.95;26.98;;;9.40;99.90;;;;;;5041570;28;20044;-44
2023/03/20 02:38:25;;;;;;;50.83;27.47;;;9.30;99.90;;;;;;5069687;28;20036;-44
2023/03/20 02:41:17;;;;;;;50.17;28.80;;;9.20;99.90;;;;;;5031455;28;20055;-45
2023/03/20 02:43:51;;;;;;;52.35;30.23;;;9.10;99.90;;;;;;5042132;28;20025;-44
2023/03/20 02:46:36;;;;;;;62.97;30.45;;;9.10;99.90;;;;;;5040366;28;20474;-44
2023/03/20 02:49:11;;;;;;;55.08;29.73;;;9.10;99.90;;;;;;5041154;28;20088;-44
2023/03/20 02:51:39;;;;;;;59.75;29.85;;;9.00;99.90;;;;;;5041543;28;20104;-45
2023/03/20 02:54:17;;;;;;;64.43;30.33;;;9.00;99.90;;;;;;5043226;28;20033;-44
2023/03/20 02:57:03;;;;;;;60.65;31.52;;;9.00;99.90;;;;;;5041210;28;20025;-45
2023/03/20 02:59:43;;;;;;;70.97;33.13;;;9.00;99.90;;;;;;5040943;28;20013;-45
2023/03/20 03:02:14;;;;;;;62.63;31.25;;;9.00;99.90;;;;;;5042044;28;20025;-44
2023/03/20 03:04:47;;;;;;;63.90;31.75;;;9.00;99.90;;;;;;5041513;28;20032;-45
2023/03/20 03:07:16;;;;;;;71.65;36.47;;;9.00;99.90;;;;;;5041575;28;20040;-45
2023/03/20 03:10:14;;;;;;;69.05;33.45;;;9.00;99.90;;;;;;5072224;28;20083;-44
2023/03/20 03:12:44;;;;;;;69.32;32.03;;;9.00;99.90;;;;;;5034223;28;20522;-45
2023/03/20 03:15:17;;;;;;;61.67;31.05;;;9.00;99.90;;;;;;5055232;28;20305;-45
2023/03/20 03:17:46;;;;;;;68.35;32.72;;;9.00;99.90;;;;;;5041232;28;20025;-45
2023/03/20 03:20:22;;;;;;;76.90;34.63;;;9.00;99.90;;;;;;5040594;28;20029;-44
2023/03/20 03:22:48;;;;;;;75.07;34.00;;;9.00;99.90;;;;;;5039995;28;20017;-45
2023/03/20 03:25:14;;;;;;;78.47;37.72;;;9.00;99.90;;;;;;5040529;28;20018;-45
2023/03/20 03:27:44;;;;;;;74.13;35.20;;;9.00;99.90;;;;;;5041566;28;20025;-45
2023/03/20 03:30:13;;;;;;;81.25;35.53;;;9.00;99.90;;;;;;5040375;28;20033;-45
2023/03/20 03:32:54;;;;;;;73.15;35.85;;;9.00;99.90;;;;;;5041650;28;20067;-44
2023/03/20 03:35:21;;;;;;;80.53;35.35;;;9.00;99.90;;;;;;5033814;28;20471;-45
2023/03/20 03:38:07;;;;;;;76.97;37.00;;;9.00;99.90;;;;;;5040031;28;20479;-45
2023/03/20 03:40:39;;;;;;;78.28;35.22;;;9.00;99.90;;;;;;5037373;28;20036;-45
2023/03/20 03:43:19;;;;;;;76.75;36.95;;;9.00;99.90;;;;;;5038078;28;20017;-45
2023/03/20 03:45:51;;;;;;;81.88;37.28;;;9.00;99.90;;;;;;5045688;28;20475;-45
2023/03/20 03:48:26;;;;;;;77.15;34.90;;;9.00;99.90;;;;;;5043732;28;20041;-45
2023/03/20 03:50:59;;;;;;;80.35;35.88;;;9.00;99.90;;;;;;5043877;28;20024;-45
2023/03/20 03:53:33;;;;;;;80.20;35.13;;;9.00;99.90;;;;;;5045506;28;20534;-46
2023/03/20 03:56:02;;;;;;;77.22;34.80;;;9.00;99.90;;;;;;5042258;28;20025;-45
2023/03/20 03:58:42;;;;;;;80.55;35.47;;;9.00;99.90;;;;;;5045427;28;20039;-46
2023/03/20 04:01:12;;;;;;;84.18;35.35;;;9.10;99.90;;;;;;5041176;28;20017;-46
2023/03/20 04:03:41;;;;;;;80.68;34.95;;;9.10;99.90;;;;;;5037560;28;20037;-45
2023/03/20 04:06:10;;;;;;;67.55;30.42;;;9.10;99.90;;;;;;5036757;28;20486;-45
2023/03/20 04:08:36;;;;;;;79.65;33.85;;;9.10;99.90;;;;;;5044220;28;20483;-46
2023/03/20 04:11:02;;;;;;;74.32;33.88;;;9.20;99.90;;;;;;5055032;28;20029;-45
2023/03/20 04:13:27;;;;;;;85.70;33.67;;;9.20;99.90;;;;;;5043870;28;20066;-45
2023/03/20 04:15:53;;;;;;;76.85;34.28;;;9.20;99.90;;;;;;5042188;28;20463;-45
2023/03/20 04:18:19;;;;;;;83.03;37.72;;;9.20;99.90;;;;;;5044380;28;20021;-45
2023/03/20 04:20:46;;;;;;;78.20;36.47;;;9.10;99.90;;;;;;5044035;28;20013;-45
2023/03/20 04:23:12;;;;;;;87.85;36.28;;;9.10;99.90;;;;;;5043309;28;20091;-45
2023/03/20 04:25:37;;;;;;;87.18;36.70;;;9.10;99.90;;;;;;5044076;28;20016;-45
2023/03/20 04:28:03;;;;;;;86.63;36.05;;;9.10;99.90;;;;;;5041927;28;20029;-45
2023/03/20 04:30:29;;;;;;;94.63;37.97;;;9.20;99.90;;;;;;5043112;28;20631;-47
2023/03/20 04:32:54;;;;;;;75.07;34.50;;;9.20;99.90;;;;;;5042460;28;20088;-45
2023/03/20 04:35:20;;;;;;;77.65;34.85;;;9.20;99.90;;;;;;5043659;28;20120;-45
2023/03/20 04:37:45;;;;;;;80.40;33.55;;;9.20;99.90;;;;;;5043332;28;20021;-45
2023/03/20 04:40:12;;;;;;;84.38;35.28;;;9.20;99.90;;;;;;5043454;28;20017;-45
2023/03/20 04:42:37;;;;;;;82.90;37.08;;;9.20;99.90;;;;;;5042787;28;20025;-45
2023/03/20 04:45:04;;;;;;;78.13;33.80;;;9.20;99.90;;;;;;5041019;28;20337;-45
2023/03/20 04:47:29;;;;;;;80.70;34.50;;;9.10;99.90;;;;;;5043888;28;20075;-47
2023/03/20 04:49:55;;;;;;;103.50;39.60;;;9.10;99.90;;;;;;5043813;28;20017;-45
2023/03/20 04:52:20;;;;;;;83.00;37.97;;;9.10;99.90;;;;;;5042145;28;20033;-45
2023/03/20 04:54:46;;;;;;;89.40;36.75;;;9.10;99.90;;;;;;5047905;28;20021;-45
2023/03/20 04:57:11;;;;;;;90.28;37.38;;;9.10;99.90;;;;;;5041404;28;20494;-45
2023/03/20 04:59:37;;;;;;;91.70;37.13;;;9.10;99.90;;;;;;5043867;28;20025;-45
2023/03/20 05:02:03;;;;;;;93.07;37.58;;;9.00;99.90;;;;;;5041685;28;20033;-46
2023/03/20 05:04:28;;;;;;;85.53;34.92;;;9.00;99.90;;;;;;5042674;28;20026;-45
2023/03/20 05:06:54;;;;;;;77.93;36.22;;;9.00;99.90;;;;;;5042982;28;20379;-45
2023/03/20 05:09:19;;;;;;;82.13;34.95;;;8.90;99.90;;;;;;5041395;28;20441;-44
2023/03/20 05:11:45;;;;;;;87.00;34.88;;;8.90;99.90;;;;;;5043485;28;20020;-45
2023/03/20 05:14:10;;;;;;;81.70;35.72;;;8.80;99.90;;;;;;5040647;28;20128;-45
2023/03/20 05:16:36;;;;;;;82.95;35.15;;;8.90;99.90;;;;;;5042797;28;20024;-44
2023/03/20 05:19:02;;;;;;;83.53;35.55;;;8.80;99.90;;;;;;5041531;28;20025;-44
2023/03/20 05:21:27;;;;;;;79.80;34.25;;;8.80;99.90;;;;;;5043294;28;20025;-45
2023/03/20 05:23:53;;;;;;;73.65;31.33;;;8.70;99.90;;;;;;5042442;28;20017;-44
2023/03/20 05:26:19;;;;;;;69.85;31.33;;;8.80;99.90;;;;;;5044226;28;20033;-44
2023/03/20 05:28:44;;;;;;;80.25;35.42;;;8.80;99.90;;;;;;5049433;28;20036;-45
2023/03/20 05:31:10;;;;;;;72.68;31.38;;;8.70;99.90;;;;;;5048987;28;20073;-44
2023/03/20 05:33:36;;;;;;;70.60;29.85;;;8.80;99.90;;;;;;5049210;28;20280;-44
2023/03/20 05:36:02;;;;;;;65.97;31.35;;;8.80;99.90;;;;;;5046744;28;20021;-44
2023/03/20 05:38:28;;;;;;;62.38;27.42;;;8.70;99.90;;;;;;5041624;28;20021;-45
2023/03/20 05:40:57;;;;;;;76.00;31.73;;;8.70;99.90;;;;;;5044810;28;20028;-45
2023/03/20 05:43:24;;;;;;;66.70;28.27;;;8.70;99.90;;;;;;5043202;28;20445;-45
2023/03/20 05:45:49;;;;;;;63.67;26.58;;;8.70;99.90;;;;;;5043984;28;20021;-45
2023/03/20 05:48:15;;;;;;;57.35;25.25;;;8.60;99.90;;;;;;5043104;28;20083;-45
2023/03/20 05:50:40;;;;;;;57.08;24.52;;;8.70;99.90;;;;;;5043111;28;20436;-45
2023/03/20 05:53:06;;;;;;;60.45;25.90;;;8.70;99.90;;;;;;5048513;28;20036;-44
2023/03/20 05:55:32;;;;;;;51.78;25.77;;;8.70;99.90;;;;;;5048247;28;20021;-45
2023/03/20 05:57:57;;;;;;;52.78;23.67;;;8.70;99.90;;;;;;5048864;28;20418;-44
2023/03/20 06:00:23;;;;;;;47.13;21.42;;;8.70;99.90;;;;;;5048820;28;20052;-46
2023/03/20 06:02:49;;;;;;;46.25;21.73;;;8.70;99.90;;;;;;5049116;28;20325;-45
2023/03/20 06:05:14;;;;;;;46.05;22.83;;;8.80;99.90;;;;;;5048133;28;20105;-45
2023/03/20 06:07:42;;;;;;;44.95;21.70;;;8.90;99.90;;;;;;5047379;28;20478;-46
2023/03/20 06:10:08;;;;;;;43.28;21.67;;;9.00;99.90;;;;;;5048876;28;20500;-45
2023/03/20 06:12:33;;;;;;;52.05;21.73;;;9.10;99.90;;;;;;5048590;28;20037;-45
2023/03/20 06:14:59;;;;;;;44.70;19.40;;;9.10;99.90;;;;;;5048177;28;20031;-45
2023/03/20 06:17:25;;;;;;;45.72;21.65;;;9.10;99.90;;;;;;5048758;28;20028;-45
2023/03/20 06:19:50;;;;;;;49.50;22.17;;;9.20;99.90;;;;;;5047263;28;20031;-43
2023/03/20 06:22:16;;;;;;;43.88;21.25;;;9.20;99.90;;;;;;5048303;28;20082;-44
2023/03/20 06:24:42;;;;;;;48.92;22.33;;;9.30;99.90;;;;;;5048271;28;20100;-43
2023/03/20 06:27:07;;;;;;;53.25;24.30;;;9.40;99.90;;;;;;5048068;28;20029;-43
2023/03/20 06:29:33;;;;;;;51.35;23.83;;;9.40;99.90;;;;;;5045389;28;20428;-45
2023/03/20 06:31:58;;;;;;;45.40;22.70;;;9.40;99.90;;;;;;5034992;28;20029;-44
2023/03/20 06:34:24;;;;;;;41.97;21.35;;;9.40;99.90;;;;;;5043754;28;20025;-45
2023/03/20 06:36:50;;;;;;;49.35;22.65;;;9.50;99.90;;;;;;5044066;28;20410;-45
2023/03/20 06:39:15;;;;;;;46.88;23.23;;;9.50;99.90;;;;;;5047890;28;20021;-44
2023/03/20 06:41:41;;;;;;;52.30;22.95;;;9.50;99.90;;;;;;5047650;28;20021;-43
2023/03/20 06:44:06;;;;;;;54.60;24.05;;;9.60;99.90;;;;;;5048202;28;20029;-44
2023/03/20 06:46:32;;;;;;;49.80;22.42;;;9.60;99.90;;;;;;5046386;28;20036;-44
2023/03/20 06:48:58;;;;;;;45.88;22.10;;;9.70;99.90;;;;;;5041200;28;20437;-45
2023/03/20 06:51:24;;;;;;;42.80;22.17;;;9.70;99.90;;;;;;5044869;28;20021;-44
2023/03/20 06:53:50;;;;;;;49.10;23.10;;;9.80;99.90;;;;;;5042064;28;20033;-44
2023/03/20 06:56:15;;;;;;;58.38;22.08;;;9.70;99.90;;;;;;5043952;28;20429;-43
2023/03/20 06:58:41;;;;;;;42.28;19.83;;;9.80;99.90;;;;;;5047208;28;20025;-47
2023/03/20 07:01:16;;;;;;;44.97;20.92;;;9.80;99.90;;;;;;5048226;28;20028;-44
2023/03/20 07:03:42;;;;;;;41.92;21.02;;;9.90;99.90;;;;;;5048081;28;20020;-44
2023/03/20 07:06:08;;;;;;;45.83;20.33;;;10.00;99.90;;;;;;5047339;28;20079;-44
2023/03/20 07:08:34;;;;;;;50.50;21.67;;;10.00;99.90;;;;;;5050712;28;20394;-45
2023/03/20 07:11:00;;;;;;;45.15;21.48;;;10.00;99.90;;;;;;5051593;28;20025;-45
2023/03/20 07:13:27;;;;;;;50.30;23.00;;;10.00;99.90;;;;;;5051663;28;20043;-44
2023/03/20 07:15:53;;;;;;;52.42;22.42;;;10.10;99.90;;;;;;5051499;28;20078;-44
2023/03/20 07:18:19;;;;;;;49.00;20.50;;;10.10;99.90;;;;;;5050599;28;20021;-44
2023/03/20 07:20:45;;;;;;;52.30;22.48;;;10.10;99.90;;;;;;5050395;28;20028;-44
2023/03/20 07:23:10;;;;;;;41.60;20.48;;;10.00;99.90;;;;;;5051490;28;20390;-44
2023/03/20 07:25:36;;;;;;;48.15;21.15;;;10.00;99.90;;;;;;5050955;28;20029;-44
2023/03/20 07:28:02;;;;;;;52.53;22.60;;;9.90;99.90;;;;;;5050576;28;20029;-43
2023/03/20 07:30:27;;;;;;;42.88;21.02;;;10.00;99.90;;;;;;5043558;28;20021;-44
2023/03/20 07:32:53;;;;;;;49.95;22.20;;;10.00;99.90;;;;;;5042015;28;20021;-45
2023/03/20 07:35:19;;;;;;;47.20;21.50;;;9.90;99.90;;;;;;5044563;28;20163;-44
2023/03/20 07:37:44;;;;;;;47.60;23.15;;;10.00;99.90;;;;;;5051304;28;20487;-44
2023/03/20 07:40:10;;;;;;;45.28;21.20;;;10.00;99.90;;;;;;5051424;28;20036;-44
2023/03/20 07:42:36;;;;;;;52.92;22.77;;;10.10;99.90;;;;;;5050253;28;20167;-43
2023/03/20 07:45:02;;;;;;;58.17;23.60;;;10.20;99.90;;;;;;5050826;28;20545;-44
2023/03/20 07:47:27;;;;;;;54.67;24.02;;;10.10;99.90;;;;;;5051163;28;20510;-47
2023/03/20 07:49:56;;;;;;;48.55;22.27;;;10.00;99.90;;;;;;5050984;28;20044;-44
2023/03/20 07:52:22;;;;;;;54.85;24.25;;;10.00;99.90;;;;;;5051137;28;20364;-43
2023/03/20 07:54:47;;;;;;;51.90;23.55;;;10.10;99.90;;;;;;5049388;28;20021;-43
2023/03/20 07:57:13;;;;;;;43.95;22.40;;;10.10;99.90;;;;;;5051260;28;20033;-43
2023/03/20 07:59:38;;;;;;;57.88;23.15;;;10.20;99.90;;;;;;5050975;28;20025;-43
2023/03/20 08:02:04;;;;;;;53.53;21.92;;;10.20;99.90;;;;;;5051019;28;20029;-44
2023/03/20 08:04:30;;;;;;;48.58;23.50;;;10.20;99.90;;;;;;5049172;28;20036;-45
2023/03/20 08:06:55;;;;;;;67.90;25.42;;;10.20;99.90;;;;;;5050677;28;20021;-44
2023/03/20 08:09:21;;;;;;;50.58;24.05;;;10.30;99.90;;;;;;5049258;28;20037;-44
2023/03/20 08:11:46;;;;;;;57.05;25.13;;;10.20;99.90;;;;;;5050744;28;20040;-44
2023/03/20 08:14:12;;;;;;;63.33;25.88;;;10.20;99.90;;;;;;5050661;28;20074;-44
2023/03/20 08:16:37;;;;;;;67.95;24.92;;;10.30;99.90;;;;;;5050219;28;20032;-44
2023/03/20 08:19:05;;;;;;;55.95;24.38;;;10.40;99.90;;;;;;5050673;28;20025;-44
2023/03/20 08:21:31;;;;;;;58.53;26.23;;;10.40;99.90;;;;;;5049598;28;20029;-44
2023/03/20 08:23:57;;;;;;;59.22;25.33;;;10.20;99.90;;;;;;5053131;28;20459;-44
2023/03/20 08:26:24;;;;;;;49.20;24.05;;;10.30;99.90;;;;;;5063639;28;20076;-43
2023/03/20 08:28:49;;;;;;;54.17;25.80;;;10.30;99.90;;;;;;5047248;28;20068;-44
2023/03/20 08:31:16;;;;;;;42.65;22.05;;;10.30;99.90;;;;;;5047975;28;20048;-44
2023/03/20 08:33:45;;;;;;;47.20;24.33;;;10.30;99.90;;;;;;5049018;28;20057;-44
2023/03/20 08:36:10;;;;;;;49.03;24.10;;;10.30;99.90;;;;;;5044942;28;20017;-44
2023/03/20 08:38:36;;;;;;;45.40;23.35;;;10.30;99.90;;;;;;5043697;28;20031;-44
2023/03/20 08:41:02;;;;;;;50.58;25.73;;;10.30;99.90;;;;;;5043724;28;20090;-44
2023/03/20 08:43:28;;;;;;;47.80;24.52;;;10.40;99.90;;;;;;5045865;28;20033;-44
2023/03/20 08:45:54;;;;;;;57.70;24.58;;;10.40;99.90;;;;;;5044031;28;20390;-43
2023/03/20 08:48:19;;;;;;;51.95;26.27;;;10.30;99.90;;;;;;5041993;28;20319;-44
2023/03/20 08:50:45;;;;;;;47.22;25.25;;;10.30;99.90;;;;;;5044575;28;20078;-44
2023/03/20 08:53:10;;;;;;;52.38;25.60;;;10.40;99.90;;;;;;5043261;28;20371;-46
2023/03/20 08:55:36;;;;;;;55.83;26.17;;;10.50;99.90;;;;;;5043303;28;20025;-44
2023/03/20 08:58:02;;;;;;;56.40;26.45;;;10.60;99.90;;;;;;5044686;28;20052;-44
2023/03/20 09:00:28;;;;;;;53.30;24.75;;;10.60;99.90;;;;;;5040518;28;20013;-44
2023/03/20 09:02:54;;;;;;;57.30;27.10;;;10.80;99.90;;;;;;5041990;28;20028;-44
2023/03/20 09:05:19;;;;;;;55.92;28.25;;;10.80;99.90;;;;;;5040315;28;20036;-44
2023/03/20 09:07:45;;;;;;;60.08;29.23;;;10.90;99.90;;;;;;5041328;28;20021;-43
2023/03/20 09:10:11;;;;;;;50.53;26.55;;;10.80;99.90;;;;;;5048525;28;20032;-44
2023/03/20 09:12:37;;;;;;;51.63;25.02;;;10.90;99.90;;;;;;5063623;28;20091;-43
2023/03/20 09:15:04;;;;;;;52.65;26.23;;;10.90;99.90;;;;;;5043608;28;20398;-44
2023/03/20 09:17:30;;;;;;;51.92;26.35;;;10.90;99.90;;;;;;5044842;28;20063;-44
2023/03/20 09:19:56;;;;;;;42.28;22.60;;;10.80;99.90;;;;;;5044715;28;20014;-44
2023/03/20 09:22:22;;;;;;;44.05;22.52;;;10.70;99.90;;;;;;5039897;28;20036;-44
2023/03/20 09:24:47;;;;;;;43.08;22.17;;;10.70;99.90;;;;;;5056195;28;20021;-44
2023/03/20 09:27:14;;;;;;;45.67;23.05;;;10.80;99.90;;;;;;5043161;28;20036;-45
2023/03/20 09:29:40;;;;;;;42.80;22.77;;;10.70;99.90;;;;;;5041279;28;20055;-44
2023/03/20 09:32:06;;;;;;;43.95;21.42;;;10.70;99.90;;;;;;5041364;28;20037;-44
2023/03/20 09:34:31;;;;;;;35.85;20.90;;;10.80;99.90;;;;;;5041866;28;20017;-44
2023/03/20 09:36:57;;;;;;;41.42;21.23;;;10.80;99.90;;;;;;5042424;28;20511;-43
2023/03/20 09:39:22;;;;;;;35.40;19.05;;;10.90;99.90;;;;;;5043939;28;20051;-45
2023/03/20 09:41:50;;;;;;;33.40;18.55;;;11.00;99.90;;;;;;5042103;28;20017;-44
2023/03/20 09:44:31;;;;;;;30.38;17.67;;;11.10;99.90;;;;;;5041441;28;20021;-44
2023/03/20 09:47:09;;;;;;;29.83;16.75;;;11.10;99.90;;;;;;5042768;28;20425;-44
2023/03/20 09:49:47;;;;;;;33.78;17.63;;;11.20;99.90;;;;;;5045108;28;20063;-44
2023/03/20 09:52:12;;;;;;;30.85;16.73;;;11.20;99.90;;;;;;5043545;28;20032;-44
2023/03/20 09:54:42;;;;;;;31.13;17.58;;;11.20;99.90;;;;;;5041194;28;20193;-43
2023/03/20 09:57:24;;;;;;;31.80;17.42;;;11.20;99.90;;;;;;5041129;28;20053;-46
2023/03/20 09:59:56;;;;;;;33.30;17.63;;;11.30;99.90;;;;;;5046210;28;20543;-43
2023/03/20 10:02:53;;;;;;;29.60;15.95;;;11.10;99.90;;;;;;5044595;28;20093;-44
2023/03/20 10:05:28;;;;;;;24.25;13.77;;;11.10;99.90;;;;;;5043551;28;20087;-43
2023/03/20 10:07:56;;;;;;;32.03;17.10;;;11.10;99.90;;;;;;5042559;28;20113;-44
2023/03/20 10:10:34;;;;;;;29.85;16.80;;;11.00;99.90;;;;;;5039585;28;20021;-43
2023/03/20 10:13:06;;;;;;;30.45;16.85;;;11.00;99.90;;;;;;5063198;28;20423;-44
2023/03/20 10:15:54;;;;;;;28.13;16.05;;;11.00;99.90;;;;;;5039207;28;20026;-44
2023/03/20 10:18:25;;;;;;;26.50;15.50;;;10.90;99.90;;;;;;5045378;28;20377;-44
2023/03/20 10:20:58;;;;;;;27.00;15.88;;;10.90;99.90;;;;;;5043257;28;20244;-44
2023/03/20 10:23:47;;;;;;;24.52;14.50;;;10.90;99.90;;;;;;5040825;28;20048;-44
2023/03/20 10:26:16;;;;;;;32.90;15.82;;;10.90;99.90;;;;;;5038145;28;20123;-45
2023/03/20 10:28:51;;;;;;;28.15;14.27;;;10.90;99.90;;;;;;5042552;28;20116;-44
2023/03/20 10:31:38;;;;;;;26.75;15.63;;;10.80;99.90;;;;;;5039782;28;20025;-44
2023/03/20 10:34:12;;;;;;;31.17;16.70;;;10.80;99.90;;;;;;5035542;28;20255;-44
2023/03/20 10:36:56;;;;;;;28.58;15.98;;;10.80;99.90;;;;;;5039107;28;20026;-44
2023/03/20 10:39:37;;;;;;;31.50;16.70;;;10.70;99.90;;;;;;5042304;28;20360;-45
2023/03/20 10:42:15;;;;;;;29.67;15.45;;;10.70;99.90;;;;;;5045508;28;20030;-47
2023/03/20 10:44:45;;;;;;;30.00;15.77;;;10.80;99.90;;;;;;5048606;28;20225;-44
2023/03/20 10:47:15;;;;;;;31.67;16.87;;;10.70;99.90;;;;;;5045143;28;20246;-45
2023/03/20 10:49:48;;;;;;;30.83;17.30;;;10.60;99.90;;;;;;5041653;28;20436;-44
2023/03/20 10:52:18;;;;;;;28.70;16.92;;;10.60;99.90;;;;;;5072566;28;20033;-44
2023/03/20 10:54:48;;;;;;;30.90;16.08;;;10.60;99.90;;;;;;5050347;28;20025;-46
2023/03/20 10:57:45;;;;;;;29.13;16.17;;;10.50;99.90;;;;;;5047507;28;20522;-45
2023/03/20 11:00:21;;;;;;;25.98;16.05;;;10.50;99.90;;;;;;5046453;28;20474;-45
2023/03/20 11:02:47;;;;;;;24.83;14.63;;;10.60;99.90;;;;;;5044935;28;20013;-43
2023/03/20 11:05:24;;;;;;;27.70;16.00;;;10.60;99.90;;;;;;5047619;28;20028;-44
2023/03/20 11:07:59;;;;;;;30.98;17.83;;;10.60;99.90;;;;;;5050824;28;20024;-44
2023/03/20 11:10:26;;;;;;;27.17;16.58;;;10.70;99.90;;;;;;5051476;28;20047;-44
2023/03/20 11:12:51;;;;;;;30.88;17.25;;;10.70;99.90;;;;;;5049993;28;20021;-46
2023/03/20 11:15:32;;;;;;;27.88;18.25;;;10.70;99.90;;;;;;5049233;28;20466;-46
2023/03/20 11:18:03;;;;;;;34.72;19.42;;;10.80;99.90;;;;;;5045656;28;20013;-45
2023/03/20 11:20:56;;;;;;;31.77;19.35;;;10.80;99.90;;;;;;5051933;28;20036;-44
2023/03/20 11:23:26;;;;;;;30.42;19.25;;;10.70;99.90;;;;;;5051114;28;20032;-44
2023/03/20 11:25:56;;;;;;;32.65;18.77;;;10.80;99.90;;;;;;5051075;28;20009;-45
2023/03/20 11:28:46;;;;;;;25.05;15.98;;;10.80;99.90;;;;;;5051515;28;20021;-44
2023/03/20 11:31:14;;;;;;;29.23;18.25;;;10.90;99.90;;;;;;5047739;28;20032;-47
2023/03/20 11:33:45;;;;;;;26.10;17.45;;;11.00;99.90;;;;;;5043028;28;20021;-45
2023/03/20 11:36:28;;;;;;;25.45;15.82;;;11.00;99.90;;;;;;5051252;28;20021;-44
2023/03/20 11:39:03;;;;;;;25.67;15.05;;;11.20;99.90;;;;;;5051621;28;20527;-43
2023/03/20 11:41:28;;;;;;;29.13;16.63;;;11.50;99.90;;;;;;5051525;28;20051;-44
2023/03/20 11:43:54;;;;;;;24.38;16.25;;;11.80;99.90;;;;;;5051031;28;20100;-46
2023/03/20 11:46:22;;;;;;;26.13;16.52;;;12.10;99.90;;;;;;5071201;28;20039;-45
2023/03/20 11:49:16;;;;;;;28.98;16.95;;;12.00;99.90;;;;;;5051289;28;20044;-44
2023/03/20 11:51:41;;;;;;;27.35;16.15;;;12.00;99.90;;;;;;5050819;28;20083;-44
2023/03/20 11:54:17;;;;;;;25.13;16.35;;;11.90;99.90;;;;;;5043538;28;20044;-46
2023/03/20 11:57:42;;;;;;;25.48;16.15;;;11.80;99.90;;;;;;5042925;28;20060;-44
2023/03/20 12:00:14;;;;;;;26.27;16.30;;;11.70;99.90;;;;;;5031191;28;20025;-45
2023/03/20 12:02:41;;;;;;;22.60;14.93;;;11.70;99.90;;;;;;5047893;28;20029;-44
2023/03/20 12:05:29;;;;;;;25.60;14.98;;;11.70;99.90;;;;;;5046522;28;20025;-44
2023/03/20 12:08:24;;;;;;;20.70;12.95;;;11.70;99.90;;;;;;5044075;28;20060;-44
2023/03/20 12:11:07;;;;;;;19.35;12.80;;;11.70;99.90;;;;;;5048191;28;20025;-45
2023/03/20 12:13:38;;;;;;;22.25;13.95;;;11.70;99.90;;;;;;5050511;28;20474;-46
2023/03/20 12:16:10;;;;;;;24.17;13.60;;;12.30;99.90;;;;;;5050421;28;20017;-46
2023/03/20 12:18:50;;;;;;;23.88;15.20;;;13.10;99.90;;;;;;5050750;28;20024;-45
2023/03/20 12:21:37;;;;;;;22.17;13.13;;;13.80;99.90;;;;;;5049350;28;20577;-43
2023/03/20 12:24:12;;;;;;;22.25;13.88;;;14.40;99.90;;;;;;5050640;28;20138;-44
2023/03/20 12:26:53;;;;;;;22.10;14.20;;;14.50;99.90;;;;;;5050115;28;20033;-44
2023/03/20 12:29:30;;;;;;;21.65;14.18;;;14.30;99.90;;;;;;5049218;28;20017;-44
2023/03/20 12:32:00;;;;;;;18.77;13.82;;;14.10;99.90;;;;;;5050519;28;20176;-44
2023/03/20 12:34:55;;;;;;;18.63;12.48;;;13.80;99.90;;;;;;5050489;28;20022;-45
2023/03/20 12:37:21;;;;;;;20.83;13.73;;;13.50;99.90;;;;;;5045760;28;20028;-44
2023/03/20 12:39:59;;;;;;;25.52;16.08;;;13.10;99.90;;;;;;5049119;28;20017;-43
2023/03/20 12:42:52;;;;;;;24.02;16.65;;;12.80;99.90;;;;;;5050192;28;20025;-44
2023/03/20 12:45:26;;;;;;;27.42;17.55;;;12.60;99.90;;;;;;5049752;28;20750;-43
2023/03/20 12:48:36;;;;;;;32.88;19.17;;;12.10;99.90;;;;;;5050042;28;20041;-44